sensor_id;sensor_type;location;lat;lon;timestamp;pressure;altitude;pressure_sealevel;temperature;humidity
61898;BME280;47850;50.274;18.908;2022-09-02T00:01:19;98600.33;;;11.16;73.70
61898;BME280;47850;50.274;18.908;2022-09-02T00:03:47;98597.15;;;11.14;74.02
61898;BME280;47850;50.274;18.908;2022-09-02T00:06:13;98597.65;;;11.14;74.07
61898;BME280;47850;50.274;18.908;2022-09-02T00:08:40;98595.23;;;11.10;74.09
61898;BME280;47850;50.274;18.908;2022-09-02T00:11:07;98593.55;;;11.10;74.38
61898;BME280;47850;50.274;18.908;2022-09-02T00:13:35;98593.54;;;11.06;74.29
61898;BME280;47850;50.274;18.908;2022-09-02T00:16:03;98594.36;;;11.01;74.45
61898;BME280;47850;50.274;18.908;2022-09-02T00:18:30;98594.89;;;10.96;74.75
61898;BME280;47850;50.274;18.908;2022-09-02T00:20:57;98593.38;;;10.92;74.83
61898;BME280;47850;50.274;18.908;2022-09-02T00:23:23;98598.47;;;10.90;75.19
61898;BME280;47850;50.274;18.908;2022-09-02T00:25:49;98592.84;;;10.88;75.32
61898;BME280;47850;50.274;18.908;2022-09-02T00:28:16;98590.25;;;10.84;75.29
61898;BME280;47850;50.274;18.908;2022-09-02T00:30:43;98593.58;;;10.83;75.39
61898;BME280;47850;50.274;18.908;2022-09-02T00:33:10;98589.14;;;10.81;75.48
61898;BME280;47850;50.274;18.908;2022-09-02T00:35:36;98587.46;;;10.80;75.51
61898;BME280;47850;50.274;18.908;2022-09-02T00:38:03;98588.06;;;10.78;75.80
61898;BME280;47850;50.274;18.908;2022-09-02T00:40:30;98582.98;;;10.76;75.70
61898;BME280;47850;50.274;18.908;2022-09-02T00:42:56;98580.29;;;10.75;75.82
61898;BME280;47850;50.274;18.908;2022-09-02T00:45:23;98577.77;;;10.73;75.78
61898;BME280;47850;50.274;18.908;2022-09-02T00:47:49;98579.43;;;10.72;75.95
61898;BME280;47850;50.274;18.908;2022-09-02T00:50:20;98579.23;;;10.71;76.26
61898;BME280;47850;50.274;18.908;2022-09-02T00:52:52;98577.25;;;10.70;76.30
61898;BME280;47850;50.274;18.908;2022-09-02T00:55:28;98575.04;;;10.66;76.16
61898;BME280;47850;50.274;18.908;2022-09-02T00:57:59;98572.44;;;10.61;76.38
61898;BME280;47850;50.274;18.908;2022-09-02T01:00:29;98572.53;;;10.57;76.43
61898;BME280;47850;50.274;18.908;2022-09-02T01:02:59;98569.00;;;10.53;76.70
61898;BME280;47850;50.274;18.908;2022-09-02T01:05:28;98568.83;;;10.51;76.80
61898;BME280;47850;50.274;18.908;2022-09-02T01:07:56;98567.92;;;10.49;76.91
61898;BME280;47850;50.274;18.908;2022-09-02T01:10:26;98566.76;;;10.47;76.96
61898;BME280;47850;50.274;18.908;2022-09-02T01:12:57;98565.46;;;10.47;77.09
61898;BME280;47850;50.274;18.908;2022-09-02T01:15:25;98567.31;;;10.47;77.23
61898;BME280;47850;50.274;18.908;2022-09-02T01:17:52;98562.46;;;10.45;77.16
61898;BME280;47850;50.274;18.908;2022-09-02T01:20:24;98564.61;;;10.38;77.15
61898;BME280;47850;50.274;18.908;2022-09-02T01:22:51;98567.89;;;10.35;77.40
61898;BME280;47850;50.274;18.908;2022-09-02T01:25:22;98568.42;;;10.32;77.38
61898;BME280;47850;50.274;18.908;2022-09-02T01:27:48;98568.85;;;10.29;77.39
61898;BME280;47850;50.274;18.908;2022-09-02T01:30:19;98573.84;;;10.25;77.52
61898;BME280;47850;50.274;18.908;2022-09-02T01:32:45;98571.59;;;10.23;77.64
61898;BME280;47850;50.274;18.908;2022-09-02T01:35:11;98571.80;;;10.21;77.76
61898;BME280;47850;50.274;18.908;2022-09-02T01:37:38;98571.25;;;10.18;77.68
61898;BME280;47850;50.274;18.908;2022-09-02T01:40:06;98570.38;;;10.16;77.80
61898;BME280;47850;50.274;18.908;2022-09-02T01:42:33;98568.95;;;10.14;77.69
61898;BME280;47850;50.274;18.908;2022-09-02T01:44:59;98573.43;;;10.14;77.96
61898;BME280;47850;50.274;18.908;2022-09-02T01:47:27;98571.31;;;10.14;77.90
61898;BME280;47850;50.274;18.908;2022-09-02T01:49:53;98575.07;;;10.16;77.89
61898;BME280;47850;50.274;18.908;2022-09-02T01:52:21;98570.13;;;10.18;77.70
61898;BME280;47850;50.274;18.908;2022-09-02T01:54:47;98571.17;;;10.19;77.69
61898;BME280;47850;50.274;18.908;2022-09-02T01:57:13;98569.17;;;10.21;77.63
61898;BME280;47850;50.274;18.908;2022-09-02T01:59:40;98565.14;;;10.22;77.85
61898;BME280;47850;50.274;18.908;2022-09-02T02:02:08;98565.98;;;10.21;77.78
61898;BME280;47850;50.274;18.908;2022-09-02T02:04:34;98565.50;;;10.20;77.68
61898;BME280;47850;50.274;18.908;2022-09-02T02:07:00;98562.25;;;10.19;77.90
61898;BME280;47850;50.274;18.908;2022-09-02T02:09:26;98558.48;;;10.17;77.80
61898;BME280;47850;50.274;18.908;2022-09-02T02:11:52;98555.17;;;10.16;77.80
61898;BME280;47850;50.274;18.908;2022-09-02T02:14:18;98551.96;;;10.16;77.91
61898;BME280;47850;50.274;18.908;2022-09-02T02:16:47;98551.16;;;10.15;77.94
61898;BME280;47850;50.274;18.908;2022-09-02T02:19:13;98550.64;;;10.14;77.78
61898;BME280;47850;50.274;18.908;2022-09-02T02:21:39;98548.89;;;10.12;77.78
61898;BME280;47850;50.274;18.908;2022-09-02T02:24:06;98547.04;;;10.10;78.03
61898;BME280;47850;50.274;18.908;2022-09-02T02:26:34;98547.14;;;10.07;78.04
61898;BME280;47850;50.274;18.908;2022-09-02T02:29:00;98546.04;;;10.05;78.11
61898;BME280;47850;50.274;18.908;2022-09-02T02:31:27;98545.16;;;10.03;78.13
61898;BME280;47850;50.274;18.908;2022-09-02T02:33:53;98549.34;;;10.01;78.23
61898;BME280;47850;50.274;18.908;2022-09-02T02:36:19;98548.82;;;10.00;78.29
61898;BME280;47850;50.274;18.908;2022-09-02T02:38:45;98553.72;;;9.98;78.17
61898;BME280;47850;50.274;18.908;2022-09-02T02:41:13;98557.63;;;9.96;78.27
61898;BME280;47850;50.274;18.908;2022-09-02T02:43:40;98556.65;;;9.96;78.45
61898;BME280;47850;50.274;18.908;2022-09-02T02:46:06;98555.84;;;9.95;78.53
61898;BME280;47850;50.274;18.908;2022-09-02T02:48:33;98552.41;;;9.93;78.63
61898;BME280;47850;50.274;18.908;2022-09-02T02:51:00;98554.13;;;9.91;78.81
61898;BME280;47850;50.274;18.908;2022-09-02T02:53:26;98553.80;;;9.89;78.79
61898;BME280;47850;50.274;18.908;2022-09-02T02:55:54;98550.43;;;9.86;78.85
61898;BME280;47850;50.274;18.908;2022-09-02T02:58:21;98548.27;;;9.83;79.01
61898;BME280;47850;50.274;18.908;2022-09-02T03:00:47;98546.87;;;9.79;79.17
61898;BME280;47850;50.274;18.908;2022-09-02T03:03:14;98550.13;;;9.74;79.32
61898;BME280;47850;50.274;18.908;2022-09-02T03:05:45;98551.75;;;9.70;79.40
61898;BME280;47850;50.274;18.908;2022-09-02T03:08:12;98551.26;;;9.67;79.61
61898;BME280;47850;50.274;18.908;2022-09-02T03:10:40;98548.80;;;9.65;79.93
61898;BME280;47850;50.274;18.908;2022-09-02T03:13:07;98547.76;;;9.62;80.01
61898;BME280;47850;50.274;18.908;2022-09-02T03:15:38;98545.86;;;9.62;79.97
61898;BME280;47850;50.274;18.908;2022-09-02T03:18:04;98543.02;;;9.61;79.97
61898;BME280;47850;50.274;18.908;2022-09-02T03:20:30;98541.77;;;9.61;79.91
61898;BME280;47850;50.274;18.908;2022-09-02T03:22:57;98539.54;;;9.62;80.12
61898;BME280;47850;50.274;18.908;2022-09-02T03:25:25;98539.33;;;9.62;80.01
61898;BME280;47850;50.274;18.908;2022-09-02T03:27:52;98546.16;;;9.60;79.99
61898;BME280;47850;50.274;18.908;2022-09-02T03:30:29;98547.02;;;9.59;80.02
61898;BME280;47850;50.274;18.908;2022-09-02T03:32:58;98545.99;;;9.57;80.16
61898;BME280;47850;50.274;18.908;2022-09-02T03:35:25;98546.11;;;9.57;80.22
61898;BME280;47850;50.274;18.908;2022-09-02T03:37:52;98546.95;;;9.56;80.31
61898;BME280;47850;50.274;18.908;2022-09-02T03:40:22;98546.30;;;9.56;80.34
61898;BME280;47850;50.274;18.908;2022-09-02T03:42:49;98550.27;;;9.54;80.38
61898;BME280;47850;50.274;18.908;2022-09-02T03:45:15;98551.71;;;9.52;80.56
61898;BME280;47850;50.274;18.908;2022-09-02T03:47:43;98551.64;;;9.51;80.50
61898;BME280;47850;50.274;18.908;2022-09-02T03:50:17;98555.61;;;9.48;80.74
61898;BME280;47850;50.274;18.908;2022-09-02T03:52:44;98555.14;;;9.47;80.81
61898;BME280;47850;50.274;18.908;2022-09-02T03:55:11;98557.81;;;9.45;80.84
61898;BME280;47850;50.274;18.908;2022-09-02T03:57:37;98561.83;;;9.44;81.05
61898;BME280;47850;50.274;18.908;2022-09-02T04:00:05;98559.67;;;9.43;81.07
61898;BME280;47850;50.274;18.908;2022-09-02T04:02:32;98559.23;;;9.44;81.14
61898;BME280;47850;50.274;18.908;2022-09-02T04:04:59;98560.27;;;9.44;81.22
61898;BME280;47850;50.274;18.908;2022-09-02T04:07:25;98562.44;;;9.44;81.26
61898;BME280;47850;50.274;18.908;2022-09-02T04:09:51;98561.38;;;9.43;81.19
61898;BME280;47850;50.274;18.908;2022-09-02T04:12:17;98562.04;;;9.42;81.28
61898;BME280;47850;50.274;18.908;2022-09-02T04:14:43;98560.34;;;9.42;81.43
61898;BME280;47850;50.274;18.908;2022-09-02T04:17:09;98562.52;;;9.42;81.37
61898;BME280;47850;50.274;18.908;2022-09-02T04:19:35;98558.29;;;9.42;81.55
61898;BME280;47850;50.274;18.908;2022-09-02T04:22:02;98562.27;;;9.44;81.46
61898;BME280;47850;50.274;18.908;2022-09-02T04:24:28;98563.39;;;9.46;81.46
61898;BME280;47850;50.274;18.908;2022-09-02T04:26:54;98564.05;;;9.48;81.54
61898;BME280;47850;50.274;18.908;2022-09-02T04:29:19;98559.58;;;9.51;81.56
61898;BME280;47850;50.274;18.908;2022-09-02T04:31:46;98564.12;;;9.55;81.48
61898;BME280;47850;50.274;18.908;2022-09-02T04:34:12;98560.98;;;9.60;81.51
61898;BME280;47850;50.274;18.908;2022-09-02T04:36:37;98565.54;;;9.63;81.39
61898;BME280;47850;50.274;18.908;2022-09-02T04:39:03;98559.14;;;9.65;81.21
61898;BME280;47850;50.274;18.908;2022-09-02T04:41:31;98560.60;;;9.68;81.33
61898;BME280;47850;50.274;18.908;2022-09-02T04:44:00;98560.92;;;9.71;81.25
61898;BME280;47850;50.274;18.908;2022-09-02T04:46:27;98561.11;;;9.75;81.18
61898;BME280;47850;50.274;18.908;2022-09-02T04:48:54;98562.31;;;9.78;81.13
61898;BME280;47850;50.274;18.908;2022-09-02T04:51:22;98562.23;;;9.81;81.09
61898;BME280;47850;50.274;18.908;2022-09-02T04:53:51;98564.27;;;9.85;81.04
61898;BME280;47850;50.274;18.908;2022-09-02T04:56:24;98562.42;;;9.90;80.88
61898;BME280;47850;50.274;18.908;2022-09-02T04:58:51;98563.85;;;9.95;80.83
61898;BME280;47850;50.274;18.908;2022-09-02T05:01:21;98564.23;;;9.98;80.67
61898;BME280;47850;50.274;18.908;2022-09-02T05:03:48;98567.44;;;10.01;80.53
61898;BME280;47850;50.274;18.908;2022-09-02T05:06:18;98565.98;;;10.05;80.29
61898;BME280;47850;50.274;18.908;2022-09-02T05:08:44;98559.71;;;10.11;80.08
61898;BME280;47850;50.274;18.908;2022-09-02T05:11:15;98557.98;;;10.15;79.99
61898;BME280;47850;50.274;18.908;2022-09-02T05:13:44;98557.36;;;10.20;79.79
61898;BME280;47850;50.274;18.908;2022-09-02T05:16:25;98561.18;;;10.28;79.48
61898;BME280;47850;50.274;18.908;2022-09-02T05:18:52;98557.77;;;10.34;79.31
61898;BME280;47850;50.274;18.908;2022-09-02T05:21:19;98555.11;;;10.39;79.06
61898;BME280;47850;50.274;18.908;2022-09-02T05:23:48;98555.19;;;10.45;78.82
61898;BME280;47850;50.274;18.908;2022-09-02T05:26:14;98553.05;;;10.53;78.44
61898;BME280;47850;50.274;18.908;2022-09-02T05:28:40;98550.11;;;10.61;78.27
61898;BME280;47850;50.274;18.908;2022-09-02T05:31:12;98554.71;;;10.70;78.07
61898;BME280;47850;50.274;18.908;2022-09-02T05:33:39;98554.09;;;10.77;77.80
61898;BME280;47850;50.274;18.908;2022-09-02T05:36:11;98550.45;;;10.85;77.35
61898;BME280;47850;50.274;18.908;2022-09-02T05:38:39;98546.00;;;10.93;76.90
61898;BME280;47850;50.274;18.908;2022-09-02T05:41:14;98547.13;;;11.00;76.83
61898;BME280;47850;50.274;18.908;2022-09-02T05:43:43;98548.10;;;11.07;76.36
61898;BME280;47850;50.274;18.908;2022-09-02T05:46:11;98551.94;;;11.15;75.92
61898;BME280;47850;50.274;18.908;2022-09-02T05:48:39;98546.80;;;11.23;75.75
61898;BME280;47850;50.274;18.908;2022-09-02T05:51:23;98549.85;;;11.29;75.41
61898;BME280;47850;50.274;18.908;2022-09-02T05:53:52;98551.45;;;11.35;75.22
61898;BME280;47850;50.274;18.908;2022-09-02T05:56:19;98553.89;;;11.42;74.80
61898;BME280;47850;50.274;18.908;2022-09-02T05:58:45;98553.55;;;11.50;74.62
61898;BME280;47850;50.274;18.908;2022-09-02T06:01:14;98550.34;;;11.58;74.55
61898;BME280;47850;50.274;18.908;2022-09-02T06:03:40;98551.88;;;11.65;74.40
61898;BME280;47850;50.274;18.908;2022-09-02T06:06:07;98552.98;;;11.72;74.00
61898;BME280;47850;50.274;18.908;2022-09-02T06:08:34;98556.20;;;11.78;73.61
61898;BME280;47850;50.274;18.908;2022-09-02T06:11:01;98557.45;;;11.84;73.75
61898;BME280;47850;50.274;18.908;2022-09-02T06:13:29;98558.59;;;11.90;73.51
61898;BME280;47850;50.274;18.908;2022-09-02T06:15:55;98556.40;;;11.97;73.40
61898;BME280;47850;50.274;18.908;2022-09-02T06:18:22;98561.97;;;12.02;73.25
61898;BME280;47850;50.274;18.908;2022-09-02T06:20:48;98560.41;;;12.07;72.65
61898;BME280;47850;50.274;18.908;2022-09-02T06:23:15;98565.56;;;12.14;72.53
61898;BME280;47850;50.274;18.908;2022-09-02T06:25:44;98567.83;;;12.22;72.69
61898;BME280;47850;50.274;18.908;2022-09-02T06:28:11;98567.51;;;12.29;72.18
61898;BME280;47850;50.274;18.908;2022-09-02T06:30:38;98569.67;;;12.36;72.19
61898;BME280;47850;50.274;18.908;2022-09-02T06:33:05;98568.70;;;12.44;72.00
61898;BME280;47850;50.274;18.908;2022-09-02T06:35:36;98564.33;;;12.51;71.60
61898;BME280;47850;50.274;18.908;2022-09-02T06:38:03;98565.83;;;12.60;71.54
61898;BME280;47850;50.274;18.908;2022-09-02T06:40:29;98566.63;;;12.68;71.47
61898;BME280;47850;50.274;18.908;2022-09-02T06:42:55;98570.00;;;12.75;71.31
61898;BME280;47850;50.274;18.908;2022-09-02T06:45:21;98567.70;;;12.82;71.20
61898;BME280;47850;50.274;18.908;2022-09-02T06:47:49;98572.23;;;12.89;70.83
61898;BME280;47850;50.274;18.908;2022-09-02T06:50:16;98573.45;;;12.95;70.29
61898;BME280;47850;50.274;18.908;2022-09-02T06:52:42;98569.44;;;13.02;69.91
61898;BME280;47850;50.274;18.908;2022-09-02T06:55:08;98572.55;;;13.09;69.71
61898;BME280;47850;50.274;18.908;2022-09-02T06:57:36;98570.02;;;13.16;69.47
61898;BME280;47850;50.274;18.908;2022-09-02T07:00:04;98568.27;;;13.22;69.28
61898;BME280;47850;50.274;18.908;2022-09-02T07:02:31;98572.80;;;13.32;68.84
61898;BME280;47850;50.274;18.908;2022-09-02T07:04:57;98571.15;;;13.41;68.85
61898;BME280;47850;50.274;18.908;2022-09-02T07:07:37;98571.27;;;13.50;68.86
61898;BME280;47850;50.274;18.908;2022-09-02T07:10:05;98573.36;;;13.59;68.33
61898;BME280;47850;50.274;18.908;2022-09-02T07:12:38;98574.94;;;13.67;68.17
61898;BME280;47850;50.274;18.908;2022-09-02T07:15:05;98577.56;;;13.76;68.13
61898;BME280;47850;50.274;18.908;2022-09-02T07:17:32;98577.16;;;13.86;67.92
61898;BME280;47850;50.274;18.908;2022-09-02T07:19:58;98577.91;;;13.95;67.38
61898;BME280;47850;50.274;18.908;2022-09-02T07:22:26;98576.20;;;14.03;67.41
61898;BME280;47850;50.274;18.908;2022-09-02T07:24:52;98581.68;;;14.11;67.41
61898;BME280;47850;50.274;18.908;2022-09-02T07:27:18;98583.73;;;14.20;66.99
61898;BME280;47850;50.274;18.908;2022-09-02T07:29:45;98579.84;;;14.27;66.58
61898;BME280;47850;50.274;18.908;2022-09-02T07:32:15;98580.39;;;14.33;66.04
61898;BME280;47850;50.274;18.908;2022-09-02T07:34:41;98580.86;;;14.41;65.77
61898;BME280;47850;50.274;18.908;2022-09-02T07:37:08;98579.92;;;14.50;65.36
61898;BME280;47850;50.274;18.908;2022-09-02T07:39:34;98581.45;;;14.62;65.41
61898;BME280;47850;50.274;18.908;2022-09-02T07:42:01;98580.23;;;14.73;65.30
61898;BME280;47850;50.274;18.908;2022-09-02T07:44:27;98582.86;;;14.83;64.25
61898;BME280;47850;50.274;18.908;2022-09-02T07:46:53;98581.11;;;14.94;63.28
61898;BME280;47850;50.274;18.908;2022-09-02T07:49:19;98582.03;;;15.05;63.21
61898;BME280;47850;50.274;18.908;2022-09-02T07:51:47;98585.29;;;15.12;62.08
61898;BME280;47850;50.274;18.908;2022-09-02T07:54:16;98583.58;;;15.20;61.23
61898;BME280;47850;50.274;18.908;2022-09-02T07:56:43;98587.02;;;15.28;61.49
61898;BME280;47850;50.274;18.908;2022-09-02T07:59:09;98586.36;;;15.35;61.09
61898;BME280;47850;50.274;18.908;2022-09-02T08:01:36;98583.55;;;15.40;61.08
61898;BME280;47850;50.274;18.908;2022-09-02T08:04:04;98578.82;;;15.49;61.20
61898;BME280;47850;50.274;18.908;2022-09-02T08:06:32;98576.52;;;15.58;61.08
61898;BME280;47850;50.274;18.908;2022-09-02T08:08:59;98573.96;;;15.66;61.17
61898;BME280;47850;50.274;18.908;2022-09-02T08:11:25;98574.02;;;15.73;61.62
61898;BME280;47850;50.274;18.908;2022-09-02T08:13:51;98576.42;;;15.82;61.06
61898;BME280;47850;50.274;18.908;2022-09-02T08:16:17;98571.98;;;15.90;60.65
61898;BME280;47850;50.274;18.908;2022-09-02T08:18:43;98569.96;;;15.98;60.85
61898;BME280;47850;50.274;18.908;2022-09-02T08:21:09;98570.02;;;16.08;60.46
61898;BME280;47850;50.274;18.908;2022-09-02T08:23:35;98569.66;;;16.17;59.51
61898;BME280;47850;50.274;18.908;2022-09-02T08:26:01;98566.95;;;16.26;58.25
61898;BME280;47850;50.274;18.908;2022-09-02T08:28:27;98568.36;;;16.34;57.63
61898;BME280;47850;50.274;18.908;2022-09-02T08:30:54;98570.55;;;16.44;58.00
61898;BME280;47850;50.274;18.908;2022-09-02T08:33:22;98567.13;;;16.54;57.61
61898;BME280;47850;50.274;18.908;2022-09-02T08:35:48;98569.56;;;16.59;56.98
61898;BME280;47850;50.274;18.908;2022-09-02T08:38:14;98569.67;;;16.72;56.89
61898;BME280;47850;50.274;18.908;2022-09-02T08:40:41;98565.80;;;16.89;56.64
61898;BME280;47850;50.274;18.908;2022-09-02T08:43:33;98563.93;;;17.03;56.18
61898;BME280;47850;50.274;18.908;2022-09-02T08:46:07;98571.36;;;17.19;55.88
61898;BME280;47850;50.274;18.908;2022-09-02T08:48:41;98571.23;;;17.36;55.09
61898;BME280;47850;50.274;18.908;2022-09-02T08:51:12;98567.25;;;17.56;54.60
61898;BME280;47850;50.274;18.908;2022-09-02T08:53:56;98564.23;;;17.72;53.77
61898;BME280;47850;50.274;18.908;2022-09-02T08:56:25;98565.05;;;17.83;52.27
61898;BME280;47850;50.274;18.908;2022-09-02T08:58:53;98565.41;;;17.85;50.42
61898;BME280;47850;50.274;18.908;2022-09-02T09:04:06;98554.13;;;18.05;50.36
61898;BME280;47850;50.274;18.908;2022-09-02T09:09:29;98545.35;;;18.47;49.49
61898;BME280;47850;50.274;18.908;2022-09-02T09:12:41;98542.64;;;18.63;49.08
61898;BME280;47850;50.274;18.908;2022-09-02T09:16:03;98543.05;;;18.71;49.29
61898;BME280;47850;50.274;18.908;2022-09-02T09:18:32;98537.83;;;18.91;48.28
61898;BME280;47850;50.274;18.908;2022-09-02T09:21:02;98535.24;;;19.13;46.73
61898;BME280;47850;50.274;18.908;2022-09-02T09:23:31;98534.45;;;19.17;44.80
61898;BME280;47850;50.274;18.908;2022-09-02T09:26:15;98535.36;;;19.16;43.59
61898;BME280;47850;50.274;18.908;2022-09-02T09:28:44;98533.34;;;19.18;43.05
61898;BME280;47850;50.274;18.908;2022-09-02T09:31:19;98529.86;;;19.30;42.84
61898;BME280;47850;50.274;18.908;2022-09-02T09:34:02;98529.52;;;19.49;42.44
61898;BME280;47850;50.274;18.908;2022-09-02T09:41:45;98529.90;;;19.87;42.74
61898;BME280;47850;50.274;18.908;2022-09-02T09:44:33;98528.67;;;19.95;41.38
61898;BME280;47850;50.274;18.908;2022-09-02T09:47:07;98526.42;;;20.04;41.21
61898;BME280;47850;50.274;18.908;2022-09-02T09:49:34;98523.71;;;20.14;40.12
61898;BME280;47850;50.274;18.908;2022-09-02T09:52:02;98521.77;;;20.23;39.73
61898;BME280;47850;50.274;18.908;2022-09-02T09:54:28;98522.81;;;20.24;39.44
61898;BME280;47850;50.274;18.908;2022-09-02T09:56:54;98519.18;;;20.31;40.38
61898;BME280;47850;50.274;18.908;2022-09-02T09:59:43;98521.48;;;20.44;40.27
61898;BME280;47850;50.274;18.908;2022-09-02T10:02:18;98527.18;;;20.50;38.96
61898;BME280;47850;50.274;18.908;2022-09-02T10:04:45;98525.22;;;20.59;38.18
61898;BME280;47850;50.274;18.908;2022-09-02T10:07:12;98521.23;;;20.75;37.26
61898;BME280;47850;50.274;18.908;2022-09-02T10:09:38;98523.73;;;20.73;36.05
61898;BME280;47850;50.274;18.908;2022-09-02T10:12:05;98522.66;;;20.58;36.66
61898;BME280;47850;50.274;18.908;2022-09-02T10:14:51;98524.27;;;20.51;37.18
61898;BME280;47850;50.274;18.908;2022-09-02T10:20:07;98516.99;;;20.67;37.96
61898;BME280;47850;50.274;18.908;2022-09-02T10:37:18;98498.66;;;20.91;38.04
61898;BME280;47850;50.274;18.908;2022-09-02T10:42:49;98499.79;;;20.57;38.53
61898;BME280;47850;50.274;18.908;2022-09-02T10:45:29;98502.98;;;20.52;38.61
61898;BME280;47850;50.274;18.908;2022-09-02T10:50:48;98508.88;;;20.42;39.00
61898;BME280;47850;50.274;18.908;2022-09-02T10:53:37;98509.33;;;20.42;39.46
61898;BME280;47850;50.274;18.908;2022-09-02T10:56:12;98503.48;;;20.34;39.01
61898;BME280;47850;50.274;18.908;2022-09-02T11:01:15;98502.26;;;20.25;38.70
61898;BME280;47850;50.274;18.908;2022-09-02T11:04:01;98499.97;;;20.33;38.46
61898;BME280;47850;50.274;18.908;2022-09-02T11:06:34;98498.27;;;20.78;38.43
61898;BME280;47850;50.274;18.908;2022-09-02T11:12:15;98488.98;;;21.74;37.01
61898;BME280;47850;50.274;18.908;2022-09-02T11:15:04;98488.23;;;21.92;35.87
61898;BME280;47850;50.274;18.908;2022-09-02T11:17:41;98489.77;;;22.00;36.64
61898;BME280;47850;50.274;18.908;2022-09-02T11:23:03;98486.02;;;22.42;35.09
61898;BME280;47850;50.274;18.908;2022-09-02T11:25:51;98489.81;;;22.40;33.94
61898;BME280;47850;50.274;18.908;2022-09-02T11:28:42;98493.88;;;22.13;34.32
61898;BME280;47850;50.274;18.908;2022-09-02T11:31:16;98487.56;;;21.88;34.28
61898;BME280;47850;50.274;18.908;2022-09-02T11:33:54;98483.23;;;21.92;34.54
61898;BME280;47850;50.274;18.908;2022-09-02T11:36:24;98475.52;;;22.24;34.11
61898;BME280;47850;50.274;18.908;2022-09-02T11:38:59;98473.71;;;22.71;34.68
61898;BME280;47850;50.274;18.908;2022-09-02T11:41:34;98470.05;;;23.23;32.24
61898;BME280;47850;50.274;18.908;2022-09-02T11:46:52;98475.27;;;23.69;30.96
61898;BME280;47850;50.274;18.908;2022-09-02T11:52:23;98473.84;;;24.30;29.59
61898;BME280;47850;50.274;18.908;2022-09-02T11:55:14;98478.58;;;24.55;29.06
61898;BME280;47850;50.274;18.908;2022-09-02T11:57:41;98472.94;;;24.85;28.92
61898;BME280;47850;50.274;18.908;2022-09-02T12:00:12;98469.55;;;25.23;29.25
61898;BME280;47850;50.274;18.908;2022-09-02T12:02:56;98467.50;;;25.67;27.83
61898;BME280;47850;50.274;18.908;2022-09-02T12:11:02;98460.82;;;26.37;27.04
61898;BME280;47850;50.274;18.908;2022-09-02T12:13:41;98462.77;;;26.16;27.65
61898;BME280;47850;50.274;18.908;2022-09-02T12:21:16;98451.63;;;26.50;26.77
61898;BME280;47850;50.274;18.908;2022-09-02T12:27:09;98447.78;;;25.51;27.22
61898;BME280;47850;50.274;18.908;2022-09-02T12:29:21;98449.13;;;24.80;28.50
61898;BME280;47850;50.274;18.908;2022-09-02T12:31:54;98450.52;;;24.26;29.31
61898;BME280;47850;50.274;18.908;2022-09-02T12:36:54;98442.20;;;23.92;29.79
61898;BME280;47850;50.274;18.908;2022-09-02T12:47:58;98424.86;;;24.60;29.22
61898;BME280;47850;50.274;18.908;2022-09-02T12:55:54;98423.63;;;24.06;29.12
61898;BME280;47850;50.274;18.908;2022-09-02T12:58:24;98423.08;;;23.72;29.70
61898;BME280;47850;50.274;18.908;2022-09-02T13:05:55;98420.52;;;23.08;30.49
61898;BME280;47850;50.274;18.908;2022-09-02T13:08:39;98419.56;;;22.86;30.30
61898;BME280;47850;50.274;18.908;2022-09-02T13:11:22;98412.30;;;23.40;30.18
61898;BME280;47850;50.274;18.908;2022-09-02T13:16:51;98402.52;;;27.19;27.57
61898;BME280;47850;50.274;18.908;2022-09-02T13:25:20;98406.15;;;27.81;24.11
61898;BME280;47850;50.274;18.908;2022-09-02T13:31:20;98409.48;;;25.26;26.31
61898;BME280;47850;50.274;18.908;2022-09-02T13:34:00;98410.12;;;24.64;27.41
61898;BME280;47850;50.274;18.908;2022-09-02T13:36:30;98409.60;;;24.89;26.97
61898;BME280;47850;50.274;18.908;2022-09-02T13:39:16;98407.57;;;26.98;25.01
61898;BME280;47850;50.274;18.908;2022-09-02T13:41:43;98401.35;;;29.08;24.00
61898;BME280;47850;50.274;18.908;2022-09-02T13:44:11;98391.02;;;30.78;21.58
61898;BME280;47850;50.274;18.908;2022-09-02T13:47:34;98397.84;;;32.19;20.30
61898;BME280;47850;50.274;18.908;2022-09-02T13:49:40;98390.58;;;34.05;19.08
61898;BME280;47850;50.274;18.908;2022-09-02T13:52:13;98390.79;;;34.67;17.38
61898;BME280;47850;50.274;18.908;2022-09-02T13:54:44;98398.25;;;33.05;18.10
61898;BME280;47850;50.274;18.908;2022-09-02T13:57:16;98395.34;;;31.28;19.09
61898;BME280;47850;50.274;18.908;2022-09-02T13:59:47;98387.45;;;29.70;20.33
61898;BME280;47850;50.274;18.908;2022-09-02T14:02:24;98390.25;;;28.30;21.36
61898;BME280;47850;50.274;18.908;2022-09-02T14:05:19;98388.99;;;27.07;22.92
61898;BME280;47850;50.274;18.908;2022-09-02T14:07:50;98384.10;;;27.79;23.25
61898;BME280;47850;50.274;18.908;2022-09-02T14:10:21;98376.50;;;30.02;21.36
61898;BME280;47850;50.274;18.908;2022-09-02T14:12:48;98372.77;;;31.82;19.30
61898;BME280;47850;50.274;18.908;2022-09-02T14:15:23;98372.75;;;33.28;18.46
61898;BME280;47850;50.274;18.908;2022-09-02T14:18:24;98375.13;;;34.65;17.45
61898;BME280;47850;50.274;18.908;2022-09-02T14:21:02;98374.42;;;34.24;16.91
61898;BME280;47850;50.274;18.908;2022-09-02T14:23:37;98373.35;;;33.44;17.52
61898;BME280;47850;50.274;18.908;2022-09-02T14:26:11;98377.69;;;31.57;18.52
61898;BME280;47850;50.274;18.908;2022-09-02T14:28:49;98377.80;;;30.11;20.36
61898;BME280;47850;50.274;18.908;2022-09-02T14:31:23;98376.25;;;28.99;21.53
61898;BME280;47850;50.274;18.908;2022-09-02T14:33:55;98377.15;;;27.87;22.15
61898;BME280;47850;50.274;18.908;2022-09-02T14:38:55;98374.94;;;26.14;24.51
61898;BME280;47850;50.274;18.908;2022-09-02T14:41:33;98374.10;;;25.56;24.87
61898;BME280;47850;50.274;18.908;2022-09-02T14:44:09;98371.71;;;24.97;26.07
61898;BME280;47850;50.274;18.908;2022-09-02T14:46:48;98372.16;;;25.28;26.37